Leighton, Iowa
Current Conditions -  °F | °C
As of 5:15 AM on Wednesday 26 Nov 2014 (Local Time) from KPEA Reporting Station
Light Snow Light Snow  
Wind Chill: 18°   Ceiling: 1100
Heat Index: 28°   Visibility: 5mi
Dew Point: 22°   Wind: 12mph
Humidity: 77%   Direction: 110°ESE
Pressure: 29.93"   Gusts: 17mph
Location:  41.34°N, 92.79°W
Report Text: KPEA 261115Z AUTO 11010G15KT 5SM -SN SCT003 BKN011 M02/M05 A2993 RMK AO2 T10201055
Loading
Personal Weather Stations






























Interactive Weather Map New forecast layout! Learn more

10-Day Weather Forecast

Advertisements
Track Severe Weather on mobile